• Join FlightAware (Why Join?)
  • Login
  • US Flag 
03:42AM EST


 

Airport Tracker/Info


-or-


 

Live Flight TrackerFlight Track Log ✈ SKW4727 ✈ 24-Jul-2013 ✈ KAZO - KMSP

Flight Track Log - Related Links

Times and Time Zones

All times are in EDT time to prevent confusion due to time zone crossing. See the SKW4727 flight status page for this flight to view local times or setup timezone preferences in your user account.

Time Position Orientation Groundspeed Altitude Reporting Facility
EDT Latitude Longitude Course Direction KTS MPH feet Rate Location/Type
04:08PM 42.3211 -85.5589 356° North 230 265 4,500  Level Chicago Center
04:09PM 42.3514 -85.6533 293° West 270 311 7,100 2,580 Climbing Chicago Center
04:10PM 42.4163 -86.0877 292° West  Level FlightAware Approximate
04:10PM 42.3817 -85.7503 293° West 279 321 9,900  Level Chicago Center
04:11PM 42.4584 -86.2253 294° West  Level FlightAware Approximate
04:11PM 42.4156 -85.8586 293° West 308 354 10,300  Level Chicago Center
04:12PM 42.5037 -86.3611 294° West  Level FlightAware Approximate
04:12PM 42.4575 -86.0042 291° West 342 394 13,300  Level Chicago Center
04:13PM 42.4853 -86.1203 288° West 325 374 15,700 1,980 Climbing Chicago Center
04:14PM 42.4967 -86.2444 277° West 335 386 17,500 1,440 Climbing Chicago Center
04:15PM 42.5089 -86.3692 278° West 335 386 18,800 1,260 Climbing Chicago Center
04:16PM 42.5408 -86.4903 290° West 346 398 20,200 1,260 Climbing Chicago Center
04:17PM 42.5803 -86.6103 294° West 349 402 21,500 1,080 Climbing Chicago Center
04:18PM 42.6203 -86.7331 294° West 353 406 22,500 1,080 Climbing Chicago Center
04:19PM 42.6681 -86.8828 294° West 359 413 23,800 1,020 Climbing Chicago Center
04:20PM 42.7092 -87.0097 294° West 364 419 24,700 840 Climbing Chicago Center
04:21PM 42.7528 -87.1389 295° West 372 428 25,600 600 Climbing Chicago Center
04:22PM 42.8075 -87.2647 301° West 388 447 26,000 180 Climbing Chicago Center
04:23PM 42.8739 -87.4017 304° West 399 459 26,000  Level Chicago Center
04:25PM 43.0044 -87.6664 304° West 422 486 26,000  Level Chicago Center
04:26PM 43.0711 -87.8061 303° West 434 499 26,000  Level Chicago Center
04:27PM 43.1494 -87.9686 303° West 439 505 26,000  Level Chicago Center
04:28PM 43.2172 -88.1086 304° West 440 506 26,000  Level Chicago Center
04:29PM 43.2836 -88.2489 303° West 440 506 26,000  Level Chicago Center
04:30PM 43.3511 -88.3900 303° West 440 506 26,000  Level Chicago Center
04:32PM 43.4169 -88.5292 303° West 441 507 26,000  Level Chicago Center
04:33PM 43.4886 -88.6836 303° West 444 511 26,000  Level Chicago Center
04:34PM 43.5544 -88.8239 303° West 437 503 26,000  Level Chicago Center
04:35PM 43.6197 -88.9647 303° West 434 499 26,000  Level Chicago Center
04:36PM 43.6969 -89.1297 303° West 438 504 26,000  Level Chicago Center
04:37PM 43.7622 -89.2719 302° West 437 503 26,000  Level Chicago Center
04:38PM 43.8275 -89.4131 303° West 436 502 26,000  Level Chicago Center
04:39PM 43.8928 -89.5564 302° West 438 504 26,000  Level Chicago Center
04:40PM 43.9578 -89.6975 303° West 435 501 26,000  Level Chicago Center
04:41PM 44.0311 -89.8658 301° West 435 501 26,000  Level Chicago Center
04:42PM 44.0928 -90.0100 301° West 434 499 26,000  Level Minneapolis Center
04:43PM 44.1550 -90.1542 301° West 435 501 26,000  Level Minneapolis Center
04:44PM 44.2175 -90.2981 301° West 435 501 26,000  Level Minneapolis Center
04:45PM 44.2903 -90.4675 301° West 436 502 26,000  Level Minneapolis Center
04:46PM 44.3536 -90.6106 302° West 434 499 26,000  Level Minneapolis Center
04:47PM 44.4153 -90.7569 301° West 435 501 26,000  Level Minneapolis Center
04:48PM 44.4772 -90.9031 301° West 435 501 26,000  Level Minneapolis Center
04:49PM 44.5375 -91.0433 301° West 435 501 26,000  Level Minneapolis Center
04:50PM 44.6097 -91.2175 300° West 432 497 26,000  Level Minneapolis Center
04:51PM 44.6672 -91.3631 299° West 431 496 26,000 -480 Level Minneapolis Center
04:52PM 44.7275 -91.5058 301° West 428 493 25,100 -1,740 Descending Minneapolis Center
04:53PM 44.7861 -91.6433 301° West 422 486 22,500 -2,460 Descending Minneapolis Center
04:54PM 44.8411 -91.7736 301° West 404 465 20,100 -2,280 Descending Minneapolis Center
04:55PM 44.8928 -91.9025 300° West 384 442 17,800 -2,400 Descending Minneapolis Center
04:56PM 44.9522 -92.0447 301° West 351 404 15,200 -2,280 Descending Minneapolis Center
04:57PM 44.9983 -92.1622 299° West 344 396 13,200 -1,980 Descending Minneapolis Center
04:58PM 45.0444 -92.2775 300° West 340 391 11,200 -900 Descending Minneapolis Center
05:00PM 45.0167 -92.5000 260° West 342 394 10,900 -480 Descending Minneapolis TRACON
05:01PM 44.9667 -92.6000 235° Southwest 297 342 10,000 -1,140 Descending Minneapolis TRACON
05:02PM 44.9167 -92.6833 230° Southwest 270 311 8,700 -1,200 Descending Minneapolis TRACON
05:03PM 44.8947 -92.7164 227° Southwest 266 306 8,200 -1,080 Descending Minneapolis Center
05:04PM 44.8528 -92.7903 231° Southwest 246 283 7,100 -1,080 Descending Minneapolis Center
05:05PM 44.8369 -92.8700 254° West 221 254 6,000 -1,080 Descending Minneapolis Center
05:06PM 44.8314 -92.9528 265° West 215 247 4,900 -1,080 Descending Minneapolis Center